createdAt,value
2022-10-29T00:00:54.061Z,100441.00
2022-10-29T00:03:21.756Z,100440.69
2022-10-29T00:05:49.478Z,100445.38
2022-10-29T00:08:17.254Z,100445.53
2022-10-29T00:10:44.972Z,100447.53
2022-10-29T00:13:12.847Z,100449.53
2022-10-29T00:15:40.481Z,100451.50
2022-10-29T00:18:08.214Z,100442.06
2022-10-29T00:20:36.060Z,100442.50
2022-10-29T00:23:04.171Z,100446.47
2022-10-29T00:25:32.121Z,100439.00
2022-10-29T00:27:59.696Z,100437.63
2022-10-29T00:30:27.281Z,100453.22
2022-10-29T00:32:55.435Z,100457.72
2022-10-29T00:35:23.346Z,100455.22
2022-10-29T00:37:51.285Z,100449.97
2022-10-29T00:40:19.002Z,100452.53
2022-10-29T00:42:46.564Z,100449.66
2022-10-29T00:45:15.891Z,100449.38
2022-10-29T00:47:43.563Z,100454.47
2022-10-29T00:50:11.513Z,100463.22
2022-10-29T00:52:39.100Z,100458.56
2022-10-29T00:55:06.795Z,100453.88
2022-10-29T00:57:34.554Z,100456.25
2022-10-29T01:00:02.177Z,100451.41
2022-10-29T01:02:30.295Z,100450.97
2022-10-29T01:04:58.240Z,100448.00
2022-10-29T01:07:26.192Z,100447.84
2022-10-29T01:09:53.802Z,100441.47
2022-10-29T01:12:21.390Z,100432.53
2022-10-29T01:14:49.359Z,100435.91
2022-10-29T01:17:17.918Z,100430.53
2022-10-29T01:19:45.698Z,100422.44
2022-10-29T01:22:13.300Z,100427.00
2022-10-29T01:24:40.875Z,100426.31
2022-10-29T01:27:08.851Z,100423.78
2022-10-29T01:29:36.443Z,100424.91
2022-10-29T01:32:04.093Z,100417.84
2022-10-29T01:34:31.838Z,100417.28
2022-10-29T01:36:59.428Z,100418.13
2022-10-29T01:39:27.421Z,100426.19
2022-10-29T01:41:55.006Z,100418.28
2022-10-29T01:44:22.582Z,100413.91
2022-10-29T01:46:50.228Z,100412.22
2022-10-29T01:49:17.822Z,100410.69
2022-10-29T01:51:46.142Z,100405.44
2022-10-29T01:54:13.771Z,100411.13
2022-10-29T01:56:41.596Z,100410.59
2022-10-29T01:59:18.057Z,100402.09
2022-10-29T02:01:56.599Z,100406.25
2022-10-29T02:04:24.246Z,100401.31
2022-10-29T02:06:51.873Z,100391.16
2022-10-29T02:09:19.637Z,100396.97
2022-10-29T02:11:47.506Z,100392.31
2022-10-29T02:14:15.468Z,100399.16
2022-10-29T02:16:43.057Z,100390.63
2022-10-29T02:19:10.644Z,100375.13
2022-10-29T02:21:40.488Z,100370.88
2022-10-29T02:24:08.075Z,100365.78
2022-10-29T02:26:36.023Z,100361.53
2022-10-29T02:29:03.622Z,100369.91
2022-10-29T02:31:31.220Z,100368.38
2022-10-29T02:34:00.201Z,100379.13
2022-10-29T02:36:27.769Z,100379.66
2022-10-29T02:38:55.712Z,100381.09
2022-10-29T02:41:23.293Z,100387.56
2022-10-29T02:43:50.873Z,100382.03
2022-10-29T02:46:18.498Z,100374.25
2022-10-29T02:48:46.080Z,100374.41
2022-10-29T02:51:14.063Z,100375.72
2022-10-29T02:53:41.677Z,100372.59
2022-10-29T02:56:09.736Z,100363.00
2022-10-29T02:58:37.487Z,100367.81
2022-10-29T03:01:05.134Z,100370.13
2022-10-29T03:03:33.141Z,100365.31
2022-10-29T03:06:00.681Z,100357.13
2022-10-29T03:08:28.261Z,100356.84
2022-10-29T03:10:56.049Z,100362.84
2022-10-29T03:13:23.679Z,100360.84
2022-10-29T03:15:51.338Z,100358.72
2022-10-29T03:18:19.295Z,100352.41
2022-10-29T03:20:47.637Z,100365.41
2022-10-29T03:23:15.543Z,100366.53
2022-10-29T03:25:43.119Z,100374.03
2022-10-29T03:28:11.130Z,100365.41
2022-10-29T03:30:38.722Z,100358.66
2022-10-29T03:33:06.318Z,100361.75
2022-10-29T03:35:33.977Z,100369.25
2022-10-29T03:38:01.651Z,100368.78
2022-10-29T03:40:29.926Z,100357.47
2022-10-29T03:42:57.872Z,100362.97
2022-10-29T03:45:25.782Z,100368.63
2022-10-29T03:47:53.824Z,100360.88
2022-10-29T03:50:21.547Z,100360.03
2022-10-29T03:52:49.469Z,100363.69
2022-10-29T03:55:17.045Z,100353.09
2022-10-29T03:57:44.658Z,100357.06
2022-10-29T04:00:12.780Z,100361.69
2022-10-29T04:02:40.990Z,100355.06
2022-10-29T04:05:09.156Z,100355.19
2022-10-29T04:07:36.802Z,100362.41
2022-10-29T04:10:04.380Z,100354.38
2022-10-29T04:12:32.134Z,100365.91
2022-10-29T04:14:59.781Z,100363.97
2022-10-29T04:17:27.772Z,100364.66
2022-10-29T04:19:55.361Z,100369.63
2022-10-29T04:30:46.237Z,100350.84
2022-10-29T04:33:13.876Z,100349.00
2022-10-29T04:35:41.685Z,100348.16
2022-10-29T04:38:09.638Z,100341.94
2022-10-29T04:40:37.244Z,100336.72
2022-10-29T04:43:05.131Z,100332.50
2022-10-29T04:45:32.783Z,100325.56
2022-10-29T04:48:00.434Z,100332.91
2022-10-29T04:50:28.100Z,100337.84
2022-10-29T04:52:55.651Z,100332.91
2022-10-29T04:55:23.246Z,100329.66
2022-10-29T04:57:50.828Z,100328.09
2022-10-29T05:00:18.913Z,100333.47
2022-10-29T05:02:46.952Z,100328.97
2022-10-29T05:05:14.917Z,100345.06
2022-10-29T05:07:42.524Z,100343.06
2022-10-29T05:10:10.145Z,100331.91
2022-10-29T05:12:37.894Z,100308.34
2022-10-29T05:15:05.837Z,100300.72
2022-10-29T05:17:33.486Z,100301.13
2022-10-29T05:20:01.080Z,100305.22
2022-10-29T05:22:28.713Z,100288.84
2022-10-29T05:24:56.400Z,100278.09
2022-10-29T05:27:24.331Z,100274.59
2022-10-29T05:29:51.906Z,100272.03
2022-10-29T05:32:19.540Z,100269.38
2022-10-29T05:34:47.260Z,100270.22
2022-10-29T05:37:15.048Z,100264.84
2022-10-29T05:39:43.012Z,100274.59
2022-10-29T05:42:10.570Z,100262.69
2022-10-29T05:44:38.168Z,100267.66
2022-10-29T05:47:06.256Z,100256.78
2022-10-29T05:49:34.147Z,100264.81
2022-10-29T05:52:02.129Z,100277.69
2022-10-29T05:54:31.244Z,100281.78
2022-10-29T05:56:58.906Z,100294.78
2022-10-29T05:59:31.079Z,100296.88
2022-10-29T06:02:01.646Z,100286.47
2022-10-29T06:04:29.340Z,100288.28
2022-10-29T06:06:57.027Z,100284.91
2022-10-29T06:09:25.049Z,100291.25
2022-10-29T06:11:52.679Z,100296.63
2022-10-29T06:14:20.404Z,100288.56
2022-10-29T06:16:48.339Z,100292.94
2022-10-29T06:19:15.926Z,100285.59
2022-10-29T06:21:43.550Z,100297.06
2022-10-29T06:24:12.375Z,100295.94
2022-10-29T06:26:40.235Z,100289.41
2022-10-29T06:29:08.208Z,100293.66
2022-10-29T06:31:36.505Z,100285.47
2022-10-29T06:34:04.137Z,100270.06
2022-10-29T06:36:31.775Z,100283.47
2022-10-29T06:38:59.431Z,100287.03
2022-10-29T06:41:27.468Z,100291.38
2022-10-29T06:43:55.090Z,100285.91
2022-10-29T06:46:22.808Z,100286.84
2022-10-29T06:48:50.478Z,100268.81
2022-10-29T06:51:18.480Z,100274.84
2022-10-29T06:53:46.584Z,100282.91
2022-10-29T06:56:14.312Z,100290.09
2022-10-29T06:58:41.987Z,100286.59
2022-10-29T07:01:09.706Z,100283.78
2022-10-29T07:03:37.437Z,100281.78
2022-10-29T07:06:05.228Z,100279.56
2022-10-29T07:08:33.488Z,100267.09
2022-10-29T07:11:03.054Z,100270.75
2022-10-29T07:13:30.784Z,100274.38
2022-10-29T07:16:00.311Z,100283.56
2022-10-29T07:18:28.111Z,100280.28
2022-10-29T07:20:55.800Z,100271.66
2022-10-29T07:23:23.558Z,100267.53
2022-10-29T07:25:51.371Z,100273.19
2022-10-29T07:28:20.949Z,100268.88
2022-10-29T07:30:49.397Z,100271.16
2022-10-29T07:33:17.054Z,100276.22
2022-10-29T07:35:44.922Z,100284.81
2022-10-29T07:38:13.282Z,100279.13
2022-10-29T07:40:41.215Z,100282.09
2022-10-29T07:43:09.348Z,100294.50
2022-10-29T07:45:37.090Z,100298.13
2022-10-29T07:48:04.770Z,100289.34
2022-10-29T07:50:32.515Z,100289.25
2022-10-29T07:53:00.376Z,100287.50
2022-10-29T07:58:02.571Z,100286.66
2022-10-29T08:00:30.342Z,100284.78
2022-10-29T08:02:58.013Z,100275.78
2022-10-29T08:05:26.231Z,100297.06
2022-10-29T08:07:54.703Z,100292.44
2022-10-29T08:10:22.752Z,100290.84
2022-10-29T08:12:50.814Z,100293.59
2022-10-29T08:15:18.569Z,100280.38
2022-10-29T08:17:46.605Z,100282.63
2022-10-29T08:20:14.377Z,100278.38
2022-10-29T08:22:42.525Z,100272.25
2022-10-29T08:25:10.324Z,100272.16
2022-10-29T08:27:38.113Z,100270.56
2022-10-29T08:30:06.071Z,100272.78
2022-10-29T08:32:34.544Z,100266.75
2022-10-29T08:35:02.291Z,100272.34
2022-10-29T08:37:30.009Z,100275.09
2022-10-29T08:39:57.847Z,100283.19
2022-10-29T08:42:26.177Z,100277.44
2022-10-29T08:44:54.844Z,100276.13
2022-10-29T08:47:22.593Z,100269.75
2022-10-29T08:49:50.467Z,100262.66
2022-10-29T08:52:20.379Z,100267.41
2022-10-29T08:54:48.175Z,100267.25
2022-10-29T08:57:16.465Z,100266.03
2022-10-29T08:59:44.185Z,100267.75
2022-10-29T09:02:12.151Z,100249.88
2022-10-29T09:04:40.246Z,100254.81
2022-10-29T09:07:08.738Z,100243.31
2022-10-29T09:09:36.906Z,100246.31
2022-10-29T09:12:04.977Z,100242.09
2022-10-29T09:14:32.719Z,100235.63
2022-10-29T09:17:00.479Z,100244.69
2022-10-29T09:19:28.488Z,100240.97
2022-10-29T09:21:56.654Z,100237.41
2022-10-29T09:24:24.569Z,100233.78
2022-10-29T09:26:52.648Z,100234.94
2022-10-29T09:29:20.463Z,100232.19
2022-10-29T09:31:48.509Z,100236.38
2022-10-29T09:34:18.399Z,100227.50
2022-10-29T09:36:46.137Z,100236.66
2022-10-29T09:39:14.016Z,100228.41
2022-10-29T09:41:41.952Z,100232.41
2022-10-29T09:44:09.717Z,100224.03
2022-10-29T09:46:37.983Z,100221.25
2022-10-29T09:51:34.833Z,100225.78
2022-10-29T09:54:02.522Z,100223.44
2022-10-29T09:56:30.755Z,100215.56
2022-10-29T09:58:59.361Z,100210.41
2022-10-29T10:01:27.187Z,100215.03
2022-10-29T10:03:55.222Z,100211.41
2022-10-29T10:06:23.064Z,100210.31
2022-10-29T10:08:50.881Z,100206.75
2022-10-29T10:11:19.100Z,100205.72
2022-10-29T10:13:47.251Z,100198.44
2022-10-29T10:16:15.093Z,100203.06
2022-10-29T10:21:15.822Z,100199.44
2022-10-29T10:23:43.779Z,100194.63
2022-10-29T10:26:11.541Z,100192.75
2022-10-29T10:28:39.374Z,100192.97
2022-10-29T10:31:07.278Z,100202.09
2022-10-29T10:33:35.396Z,100194.44
2022-10-29T10:36:04.277Z,100196.44
2022-10-29T10:38:32.242Z,100193.25
2022-10-29T10:41:00.124Z,100191.00
2022-10-29T10:43:28.018Z,100186.47
2022-10-29T10:45:56.050Z,100191.91
2022-10-29T10:48:24.817Z,100200.53
2022-10-29T10:50:53.609Z,100200.94
2022-10-29T10:53:21.450Z,100202.19
2022-10-29T10:55:49.300Z,100187.28
2022-10-29T10:58:17.140Z,100187.69
2022-10-29T11:00:45.081Z,100182.66
2022-10-29T11:03:13.007Z,100180.09
2022-10-29T11:05:40.862Z,100175.88
2022-10-29T11:08:08.804Z,100188.22
2022-10-29T11:10:36.821Z,100187.97
2022-10-29T11:13:04.970Z,100190.25
2022-10-29T11:15:32.723Z,100179.56
2022-10-29T11:18:01.363Z,100183.41
2022-10-29T11:20:29.366Z,100174.81
2022-10-29T11:22:57.765Z,100163.50
2022-10-29T11:25:27.228Z,100167.72
2022-10-29T11:27:55.090Z,100168.56
2022-10-29T11:30:23.053Z,100169.63
2022-10-29T11:32:50.688Z,100162.53
2022-10-29T11:35:18.742Z,100169.28
2022-10-29T11:37:47.204Z,100159.25
2022-10-29T11:40:18.868Z,100158.44
2022-10-29T11:42:46.681Z,100165.16
2022-10-29T11:45:14.449Z,100161.19
2022-10-29T11:47:42.524Z,100157.19
2022-10-29T11:50:10.611Z,100159.50
2022-10-29T11:52:38.533Z,100150.69
2022-10-29T11:55:06.261Z,100145.06
2022-10-29T11:57:34.088Z,100146.72
2022-10-29T12:00:02.104Z,100138.38
2022-10-29T12:02:30.721Z,100133.56
2022-10-29T12:04:58.566Z,100132.69
2022-10-29T12:07:27.017Z,100143.41
2022-10-29T12:09:54.767Z,100150.16
2022-10-29T12:12:22.792Z,100149.75
2022-10-29T12:14:51.112Z,100141.75
2022-10-29T12:17:19.160Z,100143.91
2022-10-29T12:19:47.117Z,100144.72
2022-10-29T12:22:15.074Z,100141.16
2022-10-29T12:24:44.369Z,100140.50
2022-10-29T12:27:14.065Z,100138.84
2022-10-29T12:29:46.998Z,100132.97
2022-10-29T12:32:14.853Z,100142.19
2022-10-29T12:34:42.515Z,100135.47
2022-10-29T12:37:10.649Z,100133.97
2022-10-29T12:39:38.449Z,100145.06
2022-10-29T12:42:06.321Z,100134.19
2022-10-29T12:44:34.282Z,100131.91
2022-10-29T12:47:02.558Z,100128.97
2022-10-29T12:49:30.869Z,100122.69
2022-10-29T12:51:59.024Z,100121.63
2022-10-29T12:54:26.796Z,100124.50
2022-10-29T12:56:54.538Z,100119.25
2022-10-29T12:59:22.495Z,100120.28
2022-10-29T13:02:10.462Z,100124.91
2022-10-29T13:04:38.821Z,100126.75
2022-10-29T13:07:06.967Z,100126.94
2022-10-29T13:09:36.220Z,100124.84
2022-10-29T13:12:04.516Z,100117.72
2022-10-29T13:14:32.403Z,100124.66
2022-10-29T13:17:00.591Z,100117.53
2022-10-29T13:19:29.612Z,100113.34
2022-10-29T13:21:57.484Z,100113.78
2022-10-29T13:24:25.755Z,100102.25
2022-10-29T13:26:53.583Z,100102.50
2022-10-29T13:29:21.725Z,100094.13
2022-10-29T13:31:49.611Z,100091.41
2022-10-29T13:34:17.501Z,100099.19
2022-10-29T13:36:45.260Z,100095.44
2022-10-29T13:39:13.317Z,100094.41
2022-10-29T13:41:43.741Z,100083.50
2022-10-29T13:44:11.949Z,100089.78
2022-10-29T13:46:44.862Z,100089.16
2022-10-29T13:49:13.314Z,100088.50
2022-10-29T13:51:41.753Z,100083.88
2022-10-29T13:54:10.232Z,100079.25
2022-10-29T13:56:38.139Z,100087.22
2022-10-29T13:59:06.165Z,100088.03
2022-10-29T14:01:34.347Z,100071.25
2022-10-29T14:04:02.288Z,100068.97
2022-10-29T14:06:30.537Z,100069.38
2022-10-29T14:08:58.514Z,100061.22
2022-10-29T14:11:26.493Z,100062.69
2022-10-29T14:13:55.763Z,100056.66
2022-10-29T14:16:23.659Z,100054.16
2022-10-29T14:18:51.865Z,100054.53
2022-10-29T14:21:19.654Z,100056.66
2022-10-29T14:23:47.371Z,100060.44
2022-10-29T14:26:15.650Z,100062.09
2022-10-29T14:28:43.617Z,100055.38
2022-10-29T14:31:11.966Z,100049.53
2022-10-29T14:33:39.854Z,100048.91
2022-10-29T14:36:08.078Z,100057.09
2022-10-29T14:38:36.040Z,100054.13
2022-10-29T14:41:03.984Z,100053.06
2022-10-29T14:43:32.142Z,100044.44
2022-10-29T14:46:00.025Z,100054.84
2022-10-29T14:48:28.065Z,100052.44
2022-10-29T14:50:58.053Z,100055.09
2022-10-29T14:53:25.791Z,100055.47
2022-10-29T14:55:54.219Z,100047.44
2022-10-29T14:58:22.079Z,100042.38
2022-10-29T15:00:50.092Z,100047.34
2022-10-29T15:03:18.558Z,100049.50
2022-10-29T15:05:46.445Z,100044.00
2022-10-29T15:08:14.912Z,100044.75
2022-10-29T15:10:42.920Z,100047.56
2022-10-29T15:13:10.938Z,100049.50
2022-10-29T15:15:39.123Z,100053.31
2022-10-29T15:18:07.561Z,100051.03
2022-10-29T15:20:35.975Z,100042.50
2022-10-29T15:23:03.810Z,100045.44
2022-10-29T15:25:31.828Z,100047.00
2022-10-29T15:28:00.379Z,100049.31
2022-10-29T15:30:28.946Z,100045.22
2022-10-29T15:32:57.227Z,100040.47
2022-10-29T15:35:25.378Z,100040.75
2022-10-29T15:37:53.580Z,100040.16
2022-10-29T15:40:23.335Z,100038.41
2022-10-29T15:42:51.147Z,100037.66
2022-10-29T15:45:19.427Z,100039.06
2022-10-29T15:47:48.646Z,100037.09
2022-10-29T15:50:16.529Z,100037.78
2022-10-29T15:52:44.618Z,100038.53
2022-10-29T15:55:12.600Z,100033.19
2022-10-29T15:57:40.786Z,100041.03
2022-10-29T16:00:08.609Z,100034.19
2022-10-29T16:02:36.868Z,100039.03
2022-10-29T16:05:05.258Z,100042.00
2022-10-29T16:07:32.972Z,100036.81
2022-10-29T16:10:01.128Z,100040.63
2022-10-29T16:12:28.946Z,100042.91
2022-10-29T16:14:56.806Z,100051.03
2022-10-29T16:17:25.133Z,100045.00
2022-10-29T16:19:53.124Z,100051.97
2022-10-29T16:22:21.226Z,100055.03
2022-10-29T16:24:49.573Z,100056.88
2022-10-29T16:27:17.413Z,100063.63
2022-10-29T16:29:47.218Z,100051.25
2022-10-29T16:32:15.291Z,100044.94
2022-10-29T16:34:43.410Z,100043.06
2022-10-29T16:37:11.279Z,100032.56
2022-10-29T16:39:39.071Z,100034.34
2022-10-29T16:42:07.290Z,100035.69
2022-10-29T16:44:35.107Z,100042.41
2022-10-29T16:47:03.879Z,100034.97
2022-10-29T16:49:31.763Z,100034.97
2022-10-29T16:51:59.493Z,100037.84
2022-10-29T16:54:27.600Z,100026.53
2022-10-29T16:56:55.393Z,100026.06
2022-10-29T16:59:23.620Z,100021.84
2022-10-29T17:01:51.524Z,100023.91
2022-10-29T17:04:19.553Z,100025.09
2022-10-29T17:06:47.662Z,100025.00
2022-10-29T17:09:16.000Z,100028.22
2022-10-29T17:11:43.883Z,100025.84
2022-10-29T17:14:11.674Z,100025.38
2022-10-29T17:16:39.658Z,100026.38
2022-10-29T17:19:07.772Z,100010.16
2022-10-29T17:21:35.666Z,100013.72
2022-10-29T17:24:07.681Z,100019.13
2022-10-29T17:26:36.025Z,100012.38
2022-10-29T17:29:03.957Z,100015.47
2022-10-29T17:31:35.433Z,100012.28
2022-10-29T17:34:03.248Z,100008.88
2022-10-29T17:36:31.674Z,100000.97
2022-10-29T17:38:59.587Z,100005.91
2022-10-29T17:41:27.464Z,100009.13
2022-10-29T17:43:55.652Z,100004.97
2022-10-29T17:46:23.404Z,100013.28
2022-10-29T17:48:51.609Z,100025.34
2022-10-29T17:51:19.444Z,100021.34
2022-10-29T17:53:47.742Z,100019.00
2022-10-29T17:56:16.151Z,100015.66
2022-10-29T17:58:43.995Z,100017.38
2022-10-29T18:01:12.530Z,100014.69
2022-10-29T18:03:40.487Z,100013.53
2022-10-29T18:06:08.250Z,100015.91
2022-10-29T18:08:36.595Z,100012.88
2022-10-29T18:11:04.578Z,100015.44
2022-10-29T18:13:32.818Z,100022.53
2022-10-29T18:16:01.223Z,100017.44
2022-10-29T18:18:34.683Z,100021.50
2022-10-29T18:21:10.847Z,100018.13
2022-10-29T18:23:39.062Z,100023.34
2022-10-29T18:26:06.913Z,100017.28
2022-10-29T18:28:36.222Z,100023.19
2022-10-29T18:31:04.121Z,100013.56
2022-10-29T18:33:32.369Z,100018.47
2022-10-29T18:36:00.617Z,100019.84
2022-10-29T18:38:30.930Z,100021.00
2022-10-29T18:40:58.827Z,100010.75
2022-10-29T18:43:26.881Z,100013.44
2022-10-29T18:45:54.839Z,100014.44
2022-10-29T18:48:23.275Z,100007.38
2022-10-29T18:50:51.218Z,100008.03
2022-10-29T18:53:19.046Z,100007.69
2022-10-29T18:55:47.006Z,100005.50
2022-10-29T18:58:15.008Z,100012.06
2022-10-29T19:00:43.204Z,100014.06
2022-10-29T19:03:11.158Z,100010.03
2022-10-29T19:05:39.117Z,100019.13
2022-10-29T19:08:06.987Z,100017.75
2022-10-29T19:10:35.112Z,100007.63
2022-10-29T19:13:03.482Z,100007.16
2022-10-29T19:15:31.291Z,100010.72
2022-10-29T19:17:59.662Z,100001.13
2022-10-29T19:20:27.825Z,100003.16
2022-10-29T19:22:56.294Z,100000.47
2022-10-29T19:25:24.700Z,99992.38
2022-10-29T19:27:52.729Z,99988.81
2022-10-29T19:30:20.540Z,99987.81
2022-10-29T19:32:48.457Z,99993.19
2022-10-29T19:35:16.506Z,99996.03
2022-10-29T19:37:44.958Z,100001.78
2022-10-29T19:40:13.179Z,99998.22
2022-10-29T19:42:41.096Z,100005.13
2022-10-29T19:45:08.902Z,100008.47
2022-10-29T19:47:37.213Z,100001.56
2022-10-29T19:50:06.103Z,100005.97
2022-10-29T19:52:33.964Z,100000.94
2022-10-29T19:55:01.804Z,99992.69
2022-10-29T19:57:29.809Z,100002.31
2022-10-29T19:59:57.698Z,99990.81
2022-10-29T20:02:26.323Z,99983.00
2022-10-29T20:04:54.237Z,99983.47
2022-10-29T20:07:22.146Z,99979.06
2022-10-29T20:09:50.045Z,99971.44
2022-10-29T20:12:18.264Z,99980.03
2022-10-29T20:14:46.412Z,99979.50
2022-10-29T20:17:14.295Z,99983.56
2022-10-29T20:19:42.147Z,99984.41
2022-10-29T20:22:10.024Z,99978.16
2022-10-29T20:24:39.423Z,99983.22
2022-10-29T20:27:07.509Z,99979.06
2022-10-29T20:29:35.243Z,99974.38
2022-10-29T20:32:03.271Z,99975.25
2022-10-29T20:34:31.285Z,99979.22
2022-10-29T20:39:33.530Z,99982.09
2022-10-29T20:42:01.565Z,99977.22
2022-10-29T20:44:29.564Z,99982.63
2022-10-29T20:46:57.937Z,99979.72
2022-10-29T20:49:26.149Z,99982.41
2022-10-29T20:51:54.309Z,99977.38
2022-10-29T20:54:22.176Z,99983.28
2022-10-29T20:56:50.022Z,99980.75
2022-10-29T20:59:17.891Z,99981.91
2022-10-29T21:01:46.305Z,99986.28
2022-10-29T21:04:15.273Z,99993.56
2022-10-29T21:06:43.152Z,99990.47
2022-10-29T21:09:11.332Z,99988.63
2022-10-29T21:11:39.049Z,99978.84
2022-10-29T21:14:07.298Z,99984.72
2022-10-29T21:16:35.520Z,99985.06
2022-10-29T21:19:04.111Z,99991.13
2022-10-29T21:21:32.055Z,99988.75
2022-10-29T21:24:00.196Z,99989.91
2022-10-29T21:26:28.206Z,99995.28
2022-10-29T21:28:56.673Z,99989.00
2022-10-29T21:31:24.628Z,99993.19
2022-10-29T21:33:52.524Z,99991.66
2022-10-29T21:36:20.519Z,99985.94
2022-10-29T21:38:48.981Z,99991.31
2022-10-29T21:41:17.447Z,99993.38
2022-10-29T21:43:45.205Z,99986.25
2022-10-29T21:46:13.197Z,99991.31
2022-10-29T21:48:41.211Z,99991.66
2022-10-29T21:51:09.093Z,99993.53
2022-10-29T21:53:37.884Z,99991.00
2022-10-29T21:56:05.762Z,99996.72
2022-10-29T21:58:33.657Z,100000.44
2022-10-29T22:01:01.551Z,100000.78
2022-10-29T22:03:29.459Z,100006.38
2022-10-29T22:05:57.800Z,100013.28
2022-10-29T22:08:25.781Z,100017.00
2022-10-29T22:10:53.564Z,100017.38
2022-10-29T22:13:21.398Z,100014.34
2022-10-29T22:15:51.064Z,100023.47
2022-10-29T22:18:19.355Z,100021.63
2022-10-29T22:20:47.163Z,100018.59
2022-10-29T22:25:47.646Z,100020.09
2022-10-29T22:28:15.634Z,100022.31
2022-10-29T22:30:43.779Z,100013.53
2022-10-29T22:33:11.476Z,100013.75
2022-10-29T22:35:39.269Z,100012.75
2022-10-29T22:38:07.592Z,100017.31
2022-10-29T22:40:35.590Z,100016.28
2022-10-29T22:43:03.775Z,100011.75
2022-10-29T22:45:31.516Z,100030.63
2022-10-29T22:47:59.293Z,100024.38
2022-10-29T22:50:27.035Z,100014.06
2022-10-29T22:52:55.117Z,100022.16
2022-10-29T22:55:23.104Z,100014.44
2022-10-29T22:57:50.810Z,100010.38
2022-10-29T23:00:18.437Z,100004.31
2022-10-29T23:02:46.201Z,100011.75
2022-10-29T23:05:14.324Z,100010.38
2022-10-29T23:07:42.333Z,100005.34
2022-10-29T23:10:09.975Z,100011.25
2022-10-29T23:12:38.428Z,100002.31
2022-10-29T23:15:06.146Z,100013.59
2022-10-29T23:17:34.076Z,100017.63
2022-10-29T23:20:02.104Z,100013.91
2022-10-29T23:22:30.265Z,100020.66
2022-10-29T23:24:57.886Z,100015.94
2022-10-29T23:27:25.627Z,100030.59
2022-10-29T23:29:53.485Z,100023.50
2022-10-29T23:32:21.494Z,100018.31
2022-10-29T23:34:50.119Z,100023.88
2022-10-29T23:37:17.767Z,100030.94
2022-10-29T23:39:45.378Z,100036.16
2022-10-29T23:42:13.279Z,100026.19
2022-10-29T23:44:41.590Z,100031.78
2022-10-29T23:47:09.161Z,100031.06
2022-10-29T23:49:36.800Z,100033.59
2022-10-29T23:52:04.437Z,100028.00
2022-10-29T23:54:32.206Z,100032.38
2022-10-29T23:57:00.172Z,100025.09
2022-10-29T23:59:27.779Z,100031.13
